createdAt,value
2023-06-21T00:00:46.828Z,99265.81
2023-06-21T00:03:15.223Z,99270.47
2023-06-21T00:05:42.462Z,99273.47
2023-06-21T00:08:09.528Z,99266.53
2023-06-21T00:10:36.414Z,99261.22
2023-06-21T00:13:03.694Z,99259.66
2023-06-21T00:15:30.711Z,99269.28
2023-06-21T00:17:58.376Z,99261.09
2023-06-21T00:20:25.600Z,99271.34
2023-06-21T00:22:57.385Z,99271.22
2023-06-21T00:25:25.351Z,99274.44
2023-06-21T00:27:52.373Z,99267.25
2023-06-21T00:30:19.276Z,99271.16
2023-06-21T00:32:46.519Z,99265.31
2023-06-21T00:35:13.455Z,99274.19
2023-06-21T00:37:40.403Z,99274.47
2023-06-21T00:40:13.519Z,99267.28
2023-06-21T00:42:40.858Z,99258.56
2023-06-21T00:45:10.198Z,99261.91
2023-06-21T00:47:37.608Z,99259.06
2023-06-21T00:50:05.491Z,99261.69
2023-06-21T00:52:33.348Z,99263.56
2023-06-21T00:55:00.354Z,99261.09
2023-06-21T00:57:27.219Z,99260.72
2023-06-21T00:59:54.676Z,99263.06
2023-06-21T01:02:21.729Z,99261.28
2023-06-21T01:04:50.839Z,99266.72
2023-06-21T01:07:53.262Z,99258.38
2023-06-21T01:10:38.850Z,99252.63
2023-06-21T01:13:15.510Z,99252.00
2023-06-21T01:15:47.436Z,99265.03
2023-06-21T01:18:16.829Z,99256.38
2023-06-21T01:20:50.997Z,99252.31
2023-06-21T01:23:26.830Z,99260.16
2023-06-21T01:26:04.590Z,99257.19
2023-06-21T01:28:53.418Z,99258.81
2023-06-21T01:31:24.792Z,99255.97
2023-06-21T01:33:53.653Z,99259.44
2023-06-21T01:36:21.259Z,99257.50
2023-06-21T01:38:51.079Z,99260.94
2023-06-21T01:41:24.533Z,99261.75
2023-06-21T01:43:51.884Z,99258.19
2023-06-21T01:46:22.735Z,99255.53
2023-06-21T01:48:52.156Z,99265.56
2023-06-21T01:51:20.755Z,99268.81
2023-06-21T01:53:49.007Z,99266.09
2023-06-21T01:56:18.342Z,99264.34
2023-06-21T01:58:48.061Z,99265.09
2023-06-21T02:01:15.521Z,99258.09
2023-06-21T02:03:49.604Z,99266.81
2023-06-21T02:06:18.097Z,99264.22
2023-06-21T02:08:46.241Z,99264.38
2023-06-21T02:11:14.545Z,99255.75
2023-06-21T02:13:42.108Z,99256.53
2023-06-21T02:16:09.878Z,99269.66
2023-06-21T02:18:37.004Z,99261.53
2023-06-21T02:21:04.434Z,99268.72
2023-06-21T02:23:31.483Z,99264.44
2023-06-21T02:25:58.647Z,99267.00
2023-06-21T02:28:26.718Z,99264.50
2023-06-21T02:30:53.888Z,99270.66
2023-06-21T02:33:21.107Z,99270.88
2023-06-21T02:35:48.503Z,99276.19
2023-06-21T02:38:15.624Z,99270.72
2023-06-21T02:40:43.819Z,99288.53
2023-06-21T02:43:11.380Z,99286.81
2023-06-21T02:45:39.127Z,99290.38
2023-06-21T02:48:08.495Z,99291.09
2023-06-21T02:50:36.987Z,99300.72
2023-06-21T02:53:04.266Z,99288.66
2023-06-21T02:55:31.806Z,99293.03
2023-06-21T02:57:58.826Z,99307.00
2023-06-21T03:00:30.263Z,99296.78
2023-06-21T03:03:02.122Z,99310.53
2023-06-21T03:05:37.694Z,99315.72
2023-06-21T03:08:06.433Z,99317.53
2023-06-21T03:10:34.420Z,99318.31
2023-06-21T03:13:01.956Z,99316.59
2023-06-21T03:15:29.505Z,99320.75
2023-06-21T03:17:56.676Z,99312.25
2023-06-21T03:20:26.770Z,99314.88
2023-06-21T03:22:54.581Z,99320.09
2023-06-21T03:25:21.624Z,99306.84
2023-06-21T03:27:49.119Z,99314.97
2023-06-21T03:30:16.492Z,99311.72
2023-06-21T03:32:49.424Z,99317.78
2023-06-21T03:35:18.778Z,99316.78
2023-06-21T03:37:48.027Z,99320.34
2023-06-21T03:40:15.818Z,99327.09
2023-06-21T03:42:44.321Z,99331.91
2023-06-21T03:45:12.196Z,99333.97
2023-06-21T03:47:41.427Z,99343.91
2023-06-21T03:50:09.884Z,99346.84
2023-06-21T03:52:37.554Z,99344.72
2023-06-21T03:55:05.758Z,99343.97
2023-06-21T03:57:33.383Z,99341.09
2023-06-21T04:04:33.096Z,99335.31
2023-06-21T04:07:00.064Z,99338.41
2023-06-21T04:09:26.911Z,99343.13
2023-06-21T04:11:54.073Z,99336.94
2023-06-21T04:14:20.898Z,99337.31
2023-06-21T04:16:48.017Z,99327.81
2023-06-21T04:19:15.138Z,99341.28
2023-06-21T04:21:42.124Z,99344.59
2023-06-21T04:24:09.241Z,99357.75
2023-06-21T04:26:36.317Z,99350.69
2023-06-21T04:29:03.447Z,99347.72
2023-06-21T04:31:30.428Z,99348.44
2023-06-21T04:33:59.716Z,99345.34
2023-06-21T04:36:26.995Z,99348.66
2023-06-21T04:38:56.308Z,99340.53
2023-06-21T04:41:23.737Z,99337.84
2023-06-21T04:43:52.288Z,99336.63
2023-06-21T04:46:19.854Z,99346.88
2023-06-21T04:48:49.433Z,99343.22
2023-06-21T04:51:16.740Z,99342.38
2023-06-21T04:53:50.323Z,99338.91
2023-06-21T04:56:17.613Z,99344.31
2023-06-21T04:58:45.574Z,99337.22
2023-06-21T05:01:14.986Z,99327.03
2023-06-21T05:03:43.491Z,99332.16
2023-06-21T05:06:11.268Z,99334.69
2023-06-21T05:08:39.713Z,99339.50
2023-06-21T05:11:08.268Z,99351.94
2023-06-21T05:13:35.420Z,99343.63
2023-06-21T05:16:02.648Z,99351.53
2023-06-21T05:18:30.670Z,99352.16
2023-06-21T05:20:57.499Z,99352.28
2023-06-21T05:23:25.381Z,99357.06
2023-06-21T05:25:54.510Z,99357.19
2023-06-21T05:28:23.394Z,99355.03
2023-06-21T05:30:50.446Z,99356.84
2023-06-21T05:33:17.632Z,99352.56
2023-06-21T05:35:44.671Z,99358.06
2023-06-21T05:38:14.799Z,99363.41
2023-06-21T05:40:42.182Z,99354.78
2023-06-21T05:43:09.115Z,99362.09
2023-06-21T05:45:38.132Z,99363.84
2023-06-21T05:48:05.755Z,99367.72
2023-06-21T05:50:32.970Z,99365.59
2023-06-21T05:53:00.048Z,99371.31
2023-06-21T05:55:27.305Z,99359.81
2023-06-21T05:57:55.362Z,99367.38
2023-06-21T06:00:22.637Z,99362.47
2023-06-21T06:02:50.879Z,99355.41
2023-06-21T06:05:19.710Z,99351.09
2023-06-21T06:07:47.542Z,99361.47
2023-06-21T06:10:14.806Z,99356.41
2023-06-21T06:12:41.661Z,99353.28
2023-06-21T06:15:09.347Z,99360.31
2023-06-21T06:17:36.507Z,99357.09
2023-06-21T06:20:07.511Z,99358.06
2023-06-21T06:22:37.309Z,99364.56
2023-06-21T06:25:04.533Z,99363.22
2023-06-21T06:27:31.433Z,99360.88
2023-06-21T06:29:59.286Z,99366.63
2023-06-21T06:32:28.832Z,99362.38
2023-06-21T06:34:55.787Z,99366.72
2023-06-21T06:37:30.727Z,99372.59
2023-06-21T06:39:59.221Z,99367.41
2023-06-21T06:42:26.158Z,99378.25
2023-06-21T06:44:54.574Z,99371.25
2023-06-21T06:47:21.897Z,99380.38
2023-06-21T06:49:48.889Z,99377.81
2023-06-21T06:52:15.899Z,99377.97
2023-06-21T06:54:42.730Z,99372.66
2023-06-21T06:57:13.647Z,99372.75
2023-06-21T06:59:49.796Z,99380.81
2023-06-21T07:02:16.806Z,99362.38
2023-06-21T07:04:43.773Z,99368.50
2023-06-21T07:07:10.707Z,99371.34
2023-06-21T07:09:39.182Z,99370.88
2023-06-21T07:12:06.557Z,99366.81
2023-06-21T07:14:33.495Z,99367.50
2023-06-21T07:17:00.526Z,99363.59
2023-06-21T07:19:27.388Z,99370.31
2023-06-21T07:21:54.280Z,99370.69
2023-06-21T07:24:21.255Z,99376.63
2023-06-21T07:26:48.143Z,99378.66
2023-06-21T07:29:15.031Z,99380.06
2023-06-21T07:31:41.903Z,99376.94
2023-06-21T07:34:10.635Z,99368.97
2023-06-21T07:36:39.937Z,99377.06
2023-06-21T07:39:09.739Z,99362.16
2023-06-21T07:41:36.887Z,99369.66
2023-06-21T07:44:03.899Z,99367.13
2023-06-21T07:46:30.936Z,99367.56
2023-06-21T07:48:57.837Z,99364.53
2023-06-21T07:51:24.773Z,99371.16
2023-06-21T07:53:51.752Z,99362.97
2023-06-21T07:56:18.776Z,99364.47
2023-06-21T07:58:45.693Z,99370.72
2023-06-21T08:01:13.630Z,99366.28
2023-06-21T08:03:43.708Z,99365.63
2023-06-21T08:06:10.618Z,99365.81
2023-06-21T08:08:37.588Z,99374.44
2023-06-21T08:11:05.041Z,99364.19
2023-06-21T08:13:32.029Z,99363.56
2023-06-21T08:15:58.928Z,99361.28
2023-06-21T08:18:25.813Z,99353.34
2023-06-21T08:20:53.010Z,99358.78
2023-06-21T08:23:19.884Z,99359.50
2023-06-21T08:25:47.894Z,99352.75
2023-06-21T08:28:14.842Z,99359.22
2023-06-21T08:30:41.793Z,99356.44
2023-06-21T08:33:10.497Z,99361.94
2023-06-21T08:35:38.947Z,99353.16
2023-06-21T08:38:22.572Z,99361.50
2023-06-21T08:40:55.155Z,99351.84
2023-06-21T08:43:22.942Z,99354.44
2023-06-21T08:45:50.857Z,99354.72
2023-06-21T08:48:20.031Z,99350.03
2023-06-21T08:50:47.346Z,99351.63
2023-06-21T08:53:21.352Z,99357.44
2023-06-21T08:55:49.149Z,99364.06
2023-06-21T08:58:21.774Z,99357.06
2023-06-21T09:00:54.929Z,99359.59
2023-06-21T09:03:37.853Z,99358.28
2023-06-21T09:06:11.872Z,99360.44
2023-06-21T09:08:41.898Z,99357.69
2023-06-21T09:11:11.025Z,99357.66
2023-06-21T09:13:39.893Z,99365.50
2023-06-21T09:16:08.134Z,99357.66
2023-06-21T09:18:40.767Z,99357.91
2023-06-21T09:21:11.749Z,99346.03
2023-06-21T09:23:42.219Z,99355.88
2023-06-21T09:26:10.401Z,99362.91
2023-06-21T09:28:37.448Z,99356.19
2023-06-21T09:31:04.381Z,99350.72
2023-06-21T09:33:31.362Z,99354.72
2023-06-21T09:35:58.930Z,99348.31
2023-06-21T09:38:27.630Z,99354.53
2023-06-21T09:40:54.545Z,99362.41
2023-06-21T09:43:23.049Z,99371.00
2023-06-21T09:46:09.456Z,99368.06
2023-06-21T09:48:37.593Z,99373.59
2023-06-21T09:51:06.905Z,99371.25
2023-06-21T09:53:34.154Z,99369.94
2023-06-21T09:56:02.275Z,99374.25
2023-06-21T09:58:32.909Z,99382.16
2023-06-21T10:01:01.772Z,99379.56
2023-06-21T10:03:29.051Z,99380.59
2023-06-21T10:05:57.748Z,99378.03
2023-06-21T10:08:37.765Z,99374.78
2023-06-21T10:11:04.811Z,99383.66
2023-06-21T10:13:33.897Z,99383.34
2023-06-21T10:16:03.011Z,99375.16
2023-06-21T10:18:30.674Z,99376.66
2023-06-21T10:21:03.080Z,99384.66
2023-06-21T10:23:33.515Z,99373.34
2023-06-21T10:26:03.077Z,99359.25
2023-06-21T10:28:36.482Z,99371.06
2023-06-21T10:31:05.330Z,99377.19
2023-06-21T10:33:35.409Z,99371.75
2023-06-21T10:36:04.800Z,99376.03
2023-06-21T10:38:44.236Z,99370.69
2023-06-21T10:41:13.524Z,99369.53
2023-06-21T10:43:41.863Z,99368.13
2023-06-21T10:46:11.283Z,99374.09
2023-06-21T10:48:39.060Z,99373.91
2023-06-21T10:51:06.891Z,99373.00
2023-06-21T10:53:35.303Z,99376.06
2023-06-21T10:56:05.672Z,99375.72
2023-06-21T10:58:33.001Z,99368.31
2023-06-21T11:01:00.212Z,99371.25
2023-06-21T11:03:28.394Z,99373.41
2023-06-21T11:06:30.122Z,99377.69
2023-06-21T11:09:08.145Z,99377.84
2023-06-21T11:11:40.975Z,99371.13
2023-06-21T11:14:08.284Z,99371.75
2023-06-21T11:16:36.729Z,99376.38
2023-06-21T11:19:15.418Z,99374.16
2023-06-21T11:21:52.061Z,99374.19
2023-06-21T11:24:20.983Z,99375.47
2023-06-21T11:27:04.475Z,99372.03
2023-06-21T11:29:37.059Z,99370.31
2023-06-21T11:32:15.197Z,99374.69
2023-06-21T11:35:02.156Z,99364.75
2023-06-21T11:37:48.941Z,99369.13
2023-06-21T11:40:17.513Z,99361.66
2023-06-21T11:42:49.401Z,99363.25
2023-06-21T11:45:37.232Z,99359.38
2023-06-21T11:48:04.253Z,99362.25
2023-06-21T11:50:36.856Z,99355.78
2023-06-21T11:53:30.820Z,99359.31
2023-06-21T11:56:01.652Z,99359.41
2023-06-21T11:58:29.669Z,99347.75
2023-06-21T12:14:59.223Z,99347.25
2023-06-21T12:17:26.258Z,99356.31
2023-06-21T12:19:53.353Z,99348.34
2023-06-21T12:22:22.561Z,99351.31
2023-06-21T12:24:53.554Z,99354.34
2023-06-21T12:27:20.549Z,99349.94
2023-06-21T12:29:56.609Z,99341.47
2023-06-21T12:32:23.421Z,99343.59
2023-06-21T12:34:50.614Z,99336.25
2023-06-21T12:37:24.600Z,99350.97
2023-06-21T12:39:54.891Z,99346.84
2023-06-21T12:42:31.147Z,99348.34
2023-06-21T12:44:59.281Z,99350.50
2023-06-21T12:47:26.706Z,99348.94
2023-06-21T12:50:01.685Z,99343.09
2023-06-21T12:52:30.269Z,99337.34
2023-06-21T12:54:57.848Z,99345.50
2023-06-21T12:57:31.593Z,99352.22
2023-06-21T12:59:59.032Z,99350.84
2023-06-21T13:02:29.317Z,99349.53
2023-06-21T13:04:57.246Z,99337.44
2023-06-21T13:07:24.189Z,99355.72
2023-06-21T13:09:51.739Z,99344.63
2023-06-21T13:12:19.266Z,99342.22
2023-06-21T13:14:46.765Z,99332.09
2023-06-21T13:17:13.707Z,99341.47
2023-06-21T13:22:22.200Z,99327.91
2023-06-21T13:24:50.473Z,99327.00
2023-06-21T13:27:18.384Z,99326.03
2023-06-21T13:29:45.226Z,99332.75
2023-06-21T13:32:12.170Z,99328.38
2023-06-21T13:34:39.047Z,99319.22
2023-06-21T13:37:06.037Z,99319.66
2023-06-21T13:39:34.510Z,99326.38
2023-06-21T13:42:02.238Z,99327.31
2023-06-21T13:44:29.173Z,99329.38
2023-06-21T13:46:56.149Z,99324.19
2023-06-21T13:49:23.029Z,99321.13
2023-06-21T13:51:49.948Z,99308.38
2023-06-21T13:54:16.926Z,99322.66
2023-06-21T13:56:43.892Z,99320.69
2023-06-21T13:59:10.751Z,99318.63
2023-06-21T14:01:37.695Z,99322.19
2023-06-21T14:04:05.978Z,99326.56
2023-06-21T14:06:33.109Z,99323.50
2023-06-21T14:08:59.965Z,99322.69
2023-06-21T14:11:26.791Z,99329.03
2023-06-21T14:13:53.749Z,99327.16
2023-06-21T14:16:20.778Z,99335.09
2023-06-21T14:18:48.586Z,99329.75
2023-06-21T14:21:16.728Z,99326.34
2023-06-21T14:23:43.850Z,99324.84
2023-06-21T14:26:10.722Z,99333.16
2023-06-21T14:28:40.896Z,99333.91
2023-06-21T14:31:08.055Z,99333.78
2023-06-21T14:33:34.950Z,99330.94
2023-06-21T14:36:01.829Z,99332.66
2023-06-21T14:38:30.510Z,99330.59
2023-06-21T14:40:57.880Z,99334.03
2023-06-21T14:43:24.693Z,99330.25
2023-06-21T14:45:54.030Z,99323.03
2023-06-21T14:48:21.385Z,99324.63
2023-06-21T14:50:48.299Z,99325.88
2023-06-21T14:53:15.335Z,99328.31
2023-06-21T14:55:44.847Z,99329.41
2023-06-21T14:58:11.700Z,99322.91
2023-06-21T15:00:40.089Z,99323.53
2023-06-21T15:03:07.145Z,99322.19
2023-06-21T15:05:34.125Z,99315.22
2023-06-21T15:08:02.541Z,99322.91
2023-06-21T15:10:29.886Z,99323.38
2023-06-21T15:13:02.061Z,99326.75
2023-06-21T15:15:30.534Z,99326.06
2023-06-21T15:17:57.954Z,99316.44
2023-06-21T15:20:24.925Z,99316.69
2023-06-21T15:22:51.992Z,99323.84
2023-06-21T15:25:19.025Z,99322.53
2023-06-21T15:27:46.026Z,99315.44
2023-06-21T15:30:14.324Z,99319.56
2023-06-21T15:32:41.564Z,99316.16
2023-06-21T15:35:10.792Z,99319.09
2023-06-21T15:37:40.550Z,99318.34
2023-06-21T15:40:11.465Z,99315.66
2023-06-21T15:42:43.727Z,99326.97
2023-06-21T15:45:11.076Z,99317.09
2023-06-21T15:47:38.143Z,99317.13
2023-06-21T15:50:07.958Z,99322.25
2023-06-21T15:52:34.960Z,99320.50
2023-06-21T15:55:01.783Z,99305.50
2023-06-21T15:57:28.668Z,99315.72
2023-06-21T15:59:55.641Z,99328.63
2023-06-21T16:05:05.218Z,99322.59
2023-06-21T16:07:32.196Z,99320.31
2023-06-21T16:09:59.983Z,99319.81
2023-06-21T16:12:27.057Z,99311.69
2023-06-21T16:14:55.796Z,99319.16
2023-06-21T16:17:23.515Z,99315.63
2023-06-21T16:19:50.539Z,99320.16
2023-06-21T16:22:17.634Z,99318.13
2023-06-21T16:24:44.642Z,99322.19
2023-06-21T16:27:11.716Z,99311.16
2023-06-21T16:29:38.547Z,99317.34
2023-06-21T16:32:05.800Z,99314.16
2023-06-21T16:34:32.908Z,99329.56
2023-06-21T16:36:59.817Z,99324.88
2023-06-21T16:39:26.662Z,99340.28
2023-06-21T16:41:53.688Z,99338.47
2023-06-21T16:44:20.595Z,99335.50
2023-06-21T16:46:47.451Z,99334.41
2023-06-21T16:49:14.372Z,99333.50
2023-06-21T16:51:41.178Z,99331.28
2023-06-21T16:54:09.090Z,99341.31
2023-06-21T16:56:36.005Z,99341.63
2023-06-21T16:59:03.795Z,99341.09
2023-06-21T17:01:30.697Z,99336.69
2023-06-21T17:03:57.726Z,99335.41
2023-06-21T17:06:25.620Z,99337.53
2023-06-21T17:08:55.545Z,99338.59
2023-06-21T17:11:24.080Z,99343.50
2023-06-21T17:13:51.162Z,99348.25
2023-06-21T17:16:18.003Z,99341.59
2023-06-21T17:18:44.936Z,99342.84
2023-06-21T17:21:11.785Z,99347.66
2023-06-21T17:23:40.736Z,99347.28
2023-06-21T17:26:09.854Z,99346.75
2023-06-21T17:28:37.612Z,99340.47
2023-06-21T17:31:04.622Z,99357.75
2023-06-21T17:33:31.680Z,99344.78
2023-06-21T17:35:58.985Z,99347.53
2023-06-21T17:38:25.951Z,99353.47
2023-06-21T17:40:53.026Z,99345.94
2023-06-21T17:43:20.179Z,99350.13
2023-06-21T17:45:47.066Z,99356.81
2023-06-21T17:48:15.146Z,99353.66
2023-06-21T17:50:42.242Z,99347.72
2023-06-21T17:53:10.126Z,99348.13
2023-06-21T17:55:37.211Z,99348.31
2023-06-21T17:58:06.525Z,99355.66
2023-06-21T18:00:34.985Z,99346.56
2023-06-21T18:03:01.967Z,99350.94
2023-06-21T18:05:29.040Z,99357.50
2023-06-21T18:07:56.244Z,99350.72
2023-06-21T18:10:23.225Z,99356.16
2023-06-21T18:12:50.059Z,99347.75
2023-06-21T18:15:17.503Z,99350.78
2023-06-21T18:17:44.458Z,99350.09
2023-06-21T18:20:12.997Z,99351.31
2023-06-21T18:22:43.685Z,99352.53
2023-06-21T18:25:11.097Z,99353.78
2023-06-21T18:27:37.966Z,99359.28
2023-06-21T18:30:10.010Z,99356.25
2023-06-21T18:32:39.237Z,99367.66
2023-06-21T18:35:09.860Z,99373.84
2023-06-21T18:37:39.900Z,99376.44
2023-06-21T18:40:08.796Z,99376.16
2023-06-21T18:42:35.890Z,99372.16
2023-06-21T18:45:02.926Z,99376.38
2023-06-21T18:47:29.868Z,99380.91
2023-06-21T18:49:58.473Z,99378.66
2023-06-21T18:52:25.442Z,99383.63
2023-06-21T18:54:52.800Z,99380.28
2023-06-21T18:57:19.879Z,99384.34
2023-06-21T18:59:46.933Z,99380.31
2023-06-21T19:02:13.833Z,99384.06
2023-06-21T19:04:43.767Z,99391.47
2023-06-21T19:07:11.582Z,99397.59
2023-06-21T19:09:38.681Z,99396.94
2023-06-21T19:12:06.415Z,99393.84
2023-06-21T19:14:33.827Z,99396.56
2023-06-21T19:17:01.534Z,99388.81
2023-06-21T19:19:28.413Z,99403.19
2023-06-21T19:21:59.724Z,99400.69
2023-06-21T19:24:28.883Z,99406.78
2023-06-21T19:26:55.971Z,99406.94
2023-06-21T19:29:23.045Z,99407.28
2023-06-21T19:31:50.467Z,99400.78
2023-06-21T19:34:21.268Z,99409.31
2023-06-21T19:36:48.213Z,99412.13
2023-06-21T19:39:15.472Z,99400.56
2023-06-21T19:41:42.352Z,99414.53
2023-06-21T19:44:11.511Z,99411.66
2023-06-21T19:46:40.844Z,99405.59
2023-06-21T19:49:07.869Z,99407.63
2023-06-21T19:51:34.923Z,99427.16
2023-06-21T19:54:02.451Z,99427.31
2023-06-21T19:56:29.460Z,99429.94
2023-06-21T19:58:58.312Z,99429.13
2023-06-21T20:04:34.353Z,99440.50
2023-06-21T20:07:01.660Z,99436.94
2023-06-21T20:09:28.890Z,99443.09
2023-06-21T20:11:56.244Z,99431.22
2023-06-21T20:14:23.294Z,99439.00
2023-06-21T20:16:50.234Z,99442.91
2023-06-21T20:19:17.321Z,99443.53
2023-06-21T20:21:46.938Z,99446.31
2023-06-21T20:24:15.063Z,99444.16
2023-06-21T20:26:43.360Z,99443.22
2023-06-21T20:29:10.408Z,99446.72
2023-06-21T20:31:37.738Z,99443.22
2023-06-21T20:34:04.840Z,99442.06
2023-06-21T20:36:34.798Z,99431.91
2023-06-21T20:39:06.991Z,99444.94
2023-06-21T20:41:33.947Z,99442.66
2023-06-21T20:44:03.204Z,99446.66
2023-06-21T20:46:30.356Z,99438.41
2023-06-21T20:48:59.751Z,99435.22
2023-06-21T20:51:26.812Z,99438.66
2023-06-21T20:53:53.909Z,99451.06
2023-06-21T20:56:22.930Z,99457.38
2023-06-21T20:58:49.834Z,99467.78
2023-06-21T21:01:16.997Z,99451.94
2023-06-21T21:03:45.955Z,99459.53
2023-06-21T21:06:13.237Z,99462.22
2023-06-21T21:08:40.870Z,99460.25
2023-06-21T21:11:10.715Z,99466.56
2023-06-21T21:13:41.880Z,99460.50
2023-06-21T21:16:09.198Z,99468.69
2023-06-21T21:18:36.072Z,99482.00
2023-06-21T21:21:07.166Z,99483.81
2023-06-21T21:23:34.015Z,99480.19
2023-06-21T21:26:00.913Z,99476.66
2023-06-21T21:28:28.152Z,99483.00
2023-06-21T21:30:55.178Z,99474.47
2023-06-21T21:33:22.170Z,99473.56
2023-06-21T21:35:49.324Z,99464.88
2023-06-21T21:38:16.272Z,99464.94
2023-06-21T21:40:43.152Z,99467.72
2023-06-21T21:43:10.474Z,99457.16
2023-06-21T21:45:37.332Z,99454.63
2023-06-21T21:48:04.764Z,99460.59
2023-06-21T21:50:31.885Z,99467.34
2023-06-21T21:52:58.797Z,99472.78
2023-06-21T21:55:27.591Z,99469.53
2023-06-21T21:57:54.536Z,99472.41
2023-06-21T22:00:21.782Z,99474.97
2023-06-21T22:02:49.116Z,99476.81
2023-06-21T22:05:16.269Z,99468.03
2023-06-21T22:07:43.261Z,99464.97
2023-06-21T22:10:17.921Z,99461.13
2023-06-21T22:12:52.577Z,99468.88
2023-06-21T22:15:19.488Z,99469.19
2023-06-21T22:17:46.473Z,99478.91
2023-06-21T22:20:16.817Z,99480.41
2023-06-21T22:22:44.300Z,99485.69
2023-06-21T22:25:14.386Z,99487.84
2023-06-21T22:27:42.242Z,99479.94
2023-06-21T22:30:10.656Z,99476.91
2023-06-21T22:32:37.706Z,99468.97
2023-06-21T22:35:05.176Z,99470.81
2023-06-21T22:37:35.066Z,99467.22
2023-06-21T22:40:02.110Z,99465.31
2023-06-21T22:42:29.082Z,99467.16
2023-06-21T22:44:56.143Z,99460.78
2023-06-21T22:47:24.840Z,99470.25
2023-06-21T22:49:54.663Z,99467.66
2023-06-21T22:52:21.789Z,99467.00
2023-06-21T22:54:48.626Z,99479.03
2023-06-21T22:57:15.744Z,99472.41
2023-06-21T22:59:42.654Z,99462.00
2023-06-21T23:02:09.837Z,99468.31
2023-06-21T23:04:36.998Z,99457.75
2023-06-21T23:07:04.189Z,99463.69
2023-06-21T23:09:32.465Z,99453.34
2023-06-21T23:11:59.776Z,99456.09
2023-06-21T23:14:26.777Z,99453.59
2023-06-21T23:16:53.717Z,99470.41
2023-06-21T23:19:20.748Z,99475.66
2023-06-21T23:21:47.692Z,99477.28
2023-06-21T23:24:14.998Z,99483.19
2023-06-21T23:26:42.589Z,99484.94
2023-06-21T23:29:12.665Z,99491.94
2023-06-21T23:31:40.010Z,99484.50
2023-06-21T23:34:07.391Z,99500.25
2023-06-21T23:36:34.904Z,99496.84
2023-06-21T23:39:02.260Z,99506.50
2023-06-21T23:41:30.360Z,99505.50
2023-06-21T23:44:00.403Z,99505.41
2023-06-21T23:46:32.013Z,99523.38
2023-06-21T23:49:00.932Z,99524.34
2023-06-21T23:51:31.339Z,99529.63
2023-06-21T23:53:59.001Z,99533.13
2023-06-21T23:56:27.887Z,99529.66
2023-06-21T23:58:55.228Z,99530.88
